Time;durP1;ratioP1;P1;durP2;ratioP2;P2;SDS_P1;SDS_P2;PMS_P1;PMS_P2;Temp;Humidity;BMP_temperature;BMP_pressure;BME280_temperature;BME280_humidity;BME280_pressure;Samples;Min_cycle;Max_cycle;Signal;HPM_P1;HPM_P2
2021/10/23 00:00:14;;;;;;;45.90;43.27;;;;;;;11.57;100.00;102567.40;1941120;74;33088;-70
2021/10/23 00:05:38;;;;;;;44.33;41.70;;;;;;;11.55;100.00;102567.36;1941065;74;33129;-70
2021/10/23 00:11:03;;;;;;;45.93;42.87;;;;;;;11.55;100.00;102562.61;1941084;74;33059;-70
2021/10/23 00:16:27;;;;;;;44.93;42.17;;;;;;;11.44;100.00;102566.31;1941290;74;33083;-71
2021/10/23 00:21:58;;;;;;;43.93;41.00;;;;;;;11.39;100.00;102563.42;1941065;74;33075;-73
2021/10/23 00:27:23;;;;;;;46.10;43.07;;;;;;;11.54;100.00;102559.55;1941146;74;32999;-72
2021/10/23 00:32:47;;;;;;;45.77;43.03;;;;;;;11.41;100.00;102566.82;1940953;74;33088;-71
2021/10/23 00:38:13;;;;;;;47.33;44.47;;;;;;;11.50;100.00;102579.25;1941263;74;33503;-73
2021/10/23 00:43:40;;;;;;;48.40;45.30;;;;;;;11.31;100.00;102577.20;1941282;74;33519;-73
2021/10/23 00:49:05;;;;;;;45.43;42.30;;;;;;;11.21;100.00;102572.81;1941077;74;33083;-72
2021/10/23 00:54:30;;;;;;;46.53;43.57;;;;;;;11.26;100.00;102575.70;1941286;74;33531;-71
2021/10/23 00:59:54;;;;;;;47.27;44.27;;;;;;;11.26;100.00;102573.46;1941092;74;33063;-71
2021/10/23 01:05:19;;;;;;;47.00;44.00;;;;;;;11.23;100.00;102581.77;1941132;74;33073;-70
2021/10/23 01:10:43;;;;;;;46.63;43.53;;;;;;;11.08;100.00;102580.05;1941030;74;33184;-70
2021/10/23 01:16:08;;;;;;;47.20;44.20;;;;;;;11.07;100.00;102578.92;1941059;74;32984;-70
2021/10/23 01:21:32;;;;;;;47.23;44.33;;;;;;;11.21;100.00;102578.95;1941050;74;33109;-70
2021/10/23 01:26:56;;;;;;;47.40;44.30;;;;;;;11.04;100.00;102576.08;1941066;74;33194;-71
2021/10/23 01:32:21;;;;;;;46.27;43.30;;;;;;;10.92;100.00;102577.50;1941229;74;33475;-71
2021/10/23 01:37:48;;;;;;;48.40;45.03;;;;;;;10.88;100.00;102577.70;1940991;74;32998;-70
2021/10/23 01:43:13;;;;;;;47.37;44.30;;;;;;;10.83;100.00;102583.14;1941010;74;33093;-71
2021/10/23 01:48:38;;;;;;;46.93;43.73;;;;;;;10.78;100.00;102584.98;1941334;74;33543;-71
2021/10/23 01:54:05;;;;;;;46.77;43.77;;;;;;;10.91;100.00;102579.16;1941116;74;32967;-70
2021/10/23 01:59:30;;;;;;;45.73;42.63;;;;;;;10.80;100.00;102587.81;1941197;74;33084;-70
2021/10/23 02:04:54;;;;;;;46.80;43.70;;;;;;;10.86;100.00;102598.51;1941002;74;33069;-71
2021/10/23 02:10:24;;;;;;;44.67;41.60;;;;;;;10.91;100.00;102593.88;1941305;74;33603;-70
2021/10/23 02:15:48;;;;;;;45.40;42.30;;;;;;;10.87;100.00;102594.61;1941318;74;33582;-70
2021/10/23 02:21:15;;;;;;;46.23;43.23;;;;;;;10.83;100.00;102597.04;1941226;74;33102;-70
2021/10/23 02:26:41;;;;;;;45.17;42.07;;;;;;;10.87;100.00;102595.46;1941154;74;33089;-70
2021/10/23 02:32:07;;;;;;;45.40;42.40;;;;;;;10.84;100.00;102593.18;1941248;74;32979;-70
2021/10/23 02:37:31;;;;;;;46.33;43.23;;;;;;;10.88;100.00;102596.31;1941031;74;33005;-70
2021/10/23 02:42:55;;;;;;;44.70;41.60;;;;;;;10.80;100.00;102583.64;1941278;74;33608;-72
2021/10/23 02:51:44;;;;;;;45.17;42.23;;;;;;;10.77;100.00;102579.97;1941260;74;33634;-70
2021/10/23 02:57:08;;;;;;;47.20;43.93;;;;;;;10.81;100.00;102582.56;1941088;74;32999;-70
2021/10/23 03:02:33;;;;;;;45.43;42.33;;;;;;;10.88;100.00;102584.65;1941037;74;33131;-70
2021/10/23 03:07:57;;;;;;;45.80;42.70;;;;;;;10.93;100.00;102576.97;1941035;74;33018;-73
2021/10/23 03:13:22;;;;;;;44.63;41.63;;;;;;;10.92;100.00;102583.61;1941037;74;33003;-70
2021/10/23 03:18:46;;;;;;;46.03;42.93;;;;;;;10.89;100.00;102585.50;1941299;74;33482;-73
2021/10/23 03:24:10;;;;;;;45.73;42.73;;;;;;;10.86;100.00;102592.95;1941109;74;32983;-70
2021/10/23 03:29:34;;;;;;;46.83;43.73;;;;;;;10.81;100.00;102589.51;1941068;74;33081;-71
2021/10/23 03:35:00;;;;;;;44.07;40.90;;;;;;;10.83;100.00;102598.97;1941316;74;33488;-71
2021/10/23 03:40:25;;;;;;;44.63;41.53;;;;;;;10.83;100.00;102598.43;1941114;74;33012;-72
2021/10/23 03:45:49;;;;;;;45.40;42.40;;;;;;;10.81;100.00;102585.87;1941255;74;33553;-71
2021/10/23 03:51:14;;;;;;;45.17;42.07;;;;;;;10.78;100.00;102587.19;1941174;74;33623;-70
2021/10/23 03:56:38;;;;;;;45.50;42.47;;;;;;;10.75;100.00;102590.47;1941247;74;33550;-70
2021/10/23 04:02:02;;;;;;;45.23;42.17;;;;;;;10.76;100.00;102594.10;1882691;74;39549;-71
2021/10/23 04:07:29;;;;;;;45.20;42.10;;;;;;;10.78;100.00;102594.72;1941299;74;33053;-70
2021/10/23 04:12:55;;;;;;;46.23;42.90;;;;;;;10.76;100.00;102591.32;1941279;74;33079;-70
2021/10/23 04:18:22;;;;;;;46.20;43.00;;;;;;;10.74;100.00;102590.16;1941072;74;33130;-71
2021/10/23 04:23:46;;;;;;;45.77;42.60;;;;;;;10.72;100.00;102591.51;1907841;75;33647;-71
2021/10/23 04:29:11;;;;;;;45.43;42.33;;;;;;;10.61;100.00;102589.03;1941050;74;33126;-71
2021/10/23 04:34:36;;;;;;;47.13;43.73;;;;;;;10.61;100.00;102597.94;1941265;74;33588;-71
2021/10/23 04:40:00;;;;;;;45.43;42.30;;;;;;;10.57;100.00;102596.16;1941039;74;33000;-70
2021/10/23 04:45:25;;;;;;;47.10;43.80;;;;;;;10.57;100.00;102594.77;1941054;74;32994;-70
2021/10/23 04:50:50;;;;;;;46.40;43.00;;;;;;;10.58;100.00;102604.81;1941421;74;33507;-71
2021/10/23 04:56:15;;;;;;;47.70;44.30;;;;;;;10.55;100.00;102599.75;1941072;74;33004;-72
2021/10/23 05:01:39;;;;;;;47.67;44.37;;;;;;;10.58;100.00;102606.73;1941077;74;33085;-70
2021/10/23 05:07:04;;;;;;;45.43;42.33;;;;;;;10.69;100.00;102605.91;1941295;74;33543;-72
2021/10/23 05:12:28;;;;;;;46.90;43.50;;;;;;;10.64;100.00;102617.75;1941225;74;33609;-70
2021/10/23 05:17:53;;;;;;;47.20;43.90;;;;;;;10.76;100.00;102603.83;1941241;74;33499;-72
2021/10/23 05:23:17;;;;;;;46.20;43.10;;;;;;;10.63;100.00;102618.83;1941156;74;33150;-70
2021/10/23 05:28:42;;;;;;;48.47;44.93;;;;;;;10.68;100.00;102618.10;1941304;74;33570;-71
2021/10/23 05:34:06;;;;;;;48.43;45.03;;;;;;;10.66;100.00;102619.72;1941090;74;33068;-70
2021/10/23 05:39:30;;;;;;;46.00;42.80;;;;;;;10.65;100.00;102629.17;1941242;74;33649;-69
2021/10/23 05:44:54;;;;;;;47.70;44.50;;;;;;;10.59;100.00;102619.55;1941344;74;33601;-71
2021/10/23 05:50:19;;;;;;;46.27;42.87;;;;;;;10.61;100.00;102633.49;1941300;74;33118;-70
2021/10/23 05:55:45;;;;;;;47.80;44.60;;;;;;;10.58;100.00;102622.87;1941130;74;33095;-71
2021/10/23 06:01:10;;;;;;;45.13;42.23;;;;;;;10.56;100.00;102629.23;1941261;74;33502;-71
2021/10/23 06:06:34;;;;;;;46.77;43.53;;;;;;;10.65;100.00;102631.95;1941048;74;32999;-72
2021/10/23 06:12:02;;;;;;;47.63;44.53;;;;;;;10.66;100.00;102633.62;1941171;74;33088;-71
2021/10/23 06:17:27;;;;;;;46.80;43.80;;;;;;;10.64;100.00;102633.03;1941142;74;33103;-71
2021/10/23 06:22:54;;;;;;;46.27;43.07;;;;;;;10.65;100.00;102648.62;1941074;74;33021;-70
2021/10/23 06:28:18;;;;;;;44.50;41.30;;;;;;;10.59;100.00;102638.47;1941239;74;33453;-70
2021/10/23 06:33:42;;;;;;;45.30;42.47;;;;;;;10.73;100.00;102642.70;1941118;74;33095;-70
2021/10/23 06:39:06;;;;;;;45.57;42.57;;;;;;;10.64;100.00;102638.59;1941341;74;33502;-73
2021/10/23 06:44:31;;;;;;;44.60;41.80;;;;;;;10.67;100.00;102636.70;1941267;74;33619;-72
2021/10/23 06:49:56;;;;;;;45.07;42.27;;;;;;;10.86;100.00;102635.50;1941332;74;33083;-73
2021/10/23 06:55:20;;;;;;;43.57;40.87;;;;;;;10.83;100.00;102649.02;1941290;74;33079;-70
2021/10/23 07:00:44;;;;;;;45.40;42.60;;;;;;;10.87;100.00;102647.44;1941029;74;33091;-82
2021/10/23 07:06:11;;;;;;;44.33;41.43;;;;;;;10.85;100.00;102649.09;1941139;74;33112;-71
2021/10/23 07:11:35;;;;;;;45.40;42.70;;;;;;;10.78;100.00;102655.30;1941019;74;33084;-70
2021/10/23 07:17:00;;;;;;;44.90;42.07;;;;;;;10.76;100.00;102650.55;1941148;74;32996;-71
2021/10/23 07:22:25;;;;;;;43.47;40.90;;;;;;;10.84;100.00;102651.56;1941265;74;33549;-70
2021/10/23 07:27:55;;;;;;;44.10;41.47;;;;;;;10.93;100.00;102650.64;1941094;74;33071;-72
2021/10/23 07:33:19;;;;;;;44.43;41.63;;;;;;;10.87;100.00;102655.23;1941319;74;33149;-72
2021/10/23 07:38:44;;;;;;;45.20;42.50;;;;;;;10.98;100.00;102656.87;1941346;74;33540;-71
2021/10/23 07:44:10;;;;;;;43.87;41.17;;;;;;;10.95;100.00;102668.77;1941379;74;33492;-72
2021/10/23 07:49:35;;;;;;;44.53;41.93;;;;;;;11.08;100.00;102667.66;1941042;74;32988;-72
2021/10/23 07:55:00;;;;;;;43.67;40.83;;;;;;;11.11;100.00;102649.66;1941395;74;33551;-72
2021/10/23 08:00:24;;;;;;;45.17;42.47;;;;;;;11.17;100.00;102672.30;1941275;74;33685;-71
2021/10/23 08:05:49;;;;;;;43.47;40.77;;;;;;;11.22;100.00;102671.88;1941052;74;33060;-71
2021/10/23 08:11:14;;;;;;;42.63;40.03;;;;;;;11.21;100.00;102670.17;1941292;74;33110;-71
2021/10/23 08:16:44;;;;;;;42.40;39.77;;;;;;;11.25;100.00;102670.55;1941190;74;33072;-71
2021/10/23 08:22:11;;;;;;;44.20;41.40;;;;;;;11.28;100.00;102670.05;1941233;74;33084;-71
2021/10/23 08:27:38;;;;;;;44.67;41.93;;;;;;;11.33;100.00;102665.99;1941076;74;33052;-71
2021/10/23 08:33:05;;;;;;;43.07;40.47;;;;;;;11.36;100.00;102671.91;1941011;74;33137;-71
2021/10/23 08:38:35;;;;;;;43.27;40.87;;;;;;;11.39;100.00;102664.98;1941330;74;33210;-73
2021/10/23 08:44:04;;;;;;;44.40;41.80;;;;;;;11.52;100.00;102684.19;1941014;74;33098;-70
2021/10/23 08:49:30;;;;;;;43.70;41.20;;;;;;;11.51;100.00;102684.45;1941230;74;33599;-72
2021/10/23 08:54:56;;;;;;;45.57;42.63;;;;;;;11.62;100.00;102686.34;1941045;74;32992;-72
2021/10/23 09:00:21;;;;;;;46.83;43.90;;;;;;;11.70;100.00;102692.91;1941271;74;32977;-79
2021/10/23 09:05:46;;;;;;;46.10;43.20;;;;;;;11.78;100.00;102683.64;1941188;74;33489;-69
2021/10/23 09:11:21;;;;;;;49.43;46.13;;;;;;;11.85;100.00;102677.36;1941023;74;33253;-69
2021/10/23 09:16:48;;;;;;;45.60;42.67;;;;;;;11.98;100.00;102669.82;1941387;74;33490;-69
2021/10/23 09:22:26;;;;;;;47.73;44.47;;;;;;;12.15;100.00;102667.91;1941186;74;33587;-69
2021/10/23 09:25:16;;;;;;;45.33;42.23;;;;;;;12.11;100.00;102670.87;1905082;75;26677;-70
2021/10/23 09:31:05;;;;;;;46.07;43.00;;;;;;;12.14;100.00;102650.34;1941074;74;32992;-67
2021/10/23 09:36:30;;;;;;;40.50;38.10;;;;;;;12.35;100.00;102647.35;1941345;74;33079;-67
2021/10/23 09:42:13;;;;;;;43.53;40.97;;;;;;;12.49;100.00;102643.68;1941232;74;33557;-69
2021/10/23 09:47:50;;;;;;;38.33;35.93;;;;;;;12.60;100.00;102639.94;1941313;74;33538;-72
2021/10/23 09:53:16;;;;;;;38.47;36.17;;;;;;;12.75;100.00;102625.67;1941313;74;33571;-74
2021/10/23 09:58:59;;;;;;;37.30;35.10;;;;;;;12.86;100.00;102618.30;1941077;74;32988;-67
2021/10/23 10:04:26;;;;;;;35.20;33.50;;;;;;;12.96;100.00;102617.61;1941301;74;33627;-68
2021/10/23 10:09:51;;;;;;;32.57;30.97;;;;;;;13.08;100.00;102617.78;1941052;74;32964;-66
2021/10/23 10:15:22;;;;;;;29.53;28.10;;;;;;;13.13;100.00;102614.24;1941286;74;32987;-68
2021/10/23 10:23:54;;;;;;;27.43;26.27;;;;;;;13.18;100.00;102606.76;2061035;69;32622;-70
2021/10/23 10:26:33;;;;;;;28.33;27.03;;;;;;;13.27;100.00;102609.09;1950687;73;26791;-72
2021/10/23 10:29:26;;;;;;;31.60;30.10;;;;;;;13.37;100.00;102609.22;2030623;71;26617;-69
2021/10/23 10:32:04;;;;;;;30.43;29.03;;;;;;;13.34;100.00;102606.41;2030837;70;26166;-70
2021/10/23 10:43:37;;;;;;;35.07;33.10;;;;;;;13.38;100.00;102615.11;2030619;71;26182;-70
2021/10/23 10:46:07;;;;;;;31.67;30.23;;;;;;;13.36;100.00;102614.50;2030584;71;26235;-70
2021/10/23 10:48:41;;;;;;;29.87;28.57;;;;;;;13.42;100.00;102612.92;2030611;70;26687;-72
2021/10/23 10:51:21;;;;;;;31.13;29.63;;;;;;;13.30;100.00;102609.98;2030579;71;26216;-73
2021/10/23 10:54:11;;;;;;;33.33;31.63;;;;;;;13.33;100.00;102612.25;2030612;70;26252;-73
2021/10/23 10:56:47;;;;;;;30.83;29.13;;;;;;;13.34;100.00;102607.81;2030600;71;26166;-73
2021/10/23 10:59:56;;;;;;;30.83;29.30;;;;;;;13.40;100.00;102603.95;2030755;71;26150;-72
2021/10/23 11:02:35;;;;;;;27.73;26.33;;;;;;;13.43;100.00;102602.61;2030590;71;26303;-70
2021/10/23 11:05:23;;;;;;;28.93;27.63;;;;;;;13.44;100.00;102612.64;2030640;71;26612;-72
2021/10/23 11:08:10;;;;;;;24.87;23.67;;;;;;;13.43;100.00;102601.20;2030793;71;26761;-72
2021/10/23 11:11:01;;;;;;;25.43;24.20;;;;;;;13.57;100.00;102600.52;2030761;71;26231;-71
2021/10/23 11:13:32;;;;;;;21.10;19.90;;;;;;;13.63;100.00;102602.27;2030649;71;26217;-72
2021/10/23 11:16:08;;;;;;;21.33;20.33;;;;;;;13.49;100.00;102597.35;2030615;71;26255;-72
2021/10/23 11:18:40;;;;;;;20.53;19.53;;;;;;;13.59;100.00;102598.88;2026878;71;26161;-73
2021/10/23 11:21:10;;;;;;;22.73;21.53;;;;;;;13.56;100.00;102594.64;1950628;73;26271;-72
2021/10/23 11:23:41;;;;;;;23.60;22.60;;;;;;;13.56;100.00;102596.03;1984440;72;26245;-73
2021/10/23 11:26:11;;;;;;;21.97;20.97;;;;;;;13.67;100.00;102597.00;1980410;72;26643;-72
2021/10/23 11:28:41;;;;;;;20.73;19.43;;;;;;;13.62;100.00;102582.42;1980480;72;26224;-70
2021/10/23 11:31:19;;;;;;;19.27;18.47;;;;;;;13.64;100.00;102584.42;1980459;72;26675;-72
2021/10/23 11:33:50;;;;;;;22.23;21.03;;;;;;;13.72;100.00;102580.84;1980374;72;26294;-70
2021/10/23 11:36:21;;;;;;;21.97;21.07;;;;;;;13.74;100.00;102585.59;1979936;72;26224;-71
2021/10/23 11:38:52;;;;;;;20.03;19.03;;;;;;;13.79;100.00;102574.48;1979984;72;26293;-71
2021/10/23 11:41:26;;;;;;;20.53;19.63;;;;;;;13.99;100.00;102571.31;1979976;72;26180;-72
2021/10/23 11:44:06;;;;;;;22.67;21.67;;;;;;;13.98;100.00;102572.45;1979876;72;26196;-71
2021/10/23 11:46:38;;;;;;;22.73;21.73;;;;;;;13.93;100.00;102572.39;1979952;72;26295;-70
2021/10/23 11:49:09;;;;;;;22.90;21.63;;;;;;;13.90;100.00;102566.50;1979780;72;26766;-72
2021/10/23 11:51:42;;;;;;;21.60;20.70;;;;;;;13.94;100.00;102569.05;1979730;72;26349;-70
2021/10/23 11:54:12;;;;;;;21.90;20.80;;;;;;;14.02;100.00;102564.38;1979814;72;26266;-72
2021/10/23 11:56:52;;;;;;;21.07;20.20;;;;;;;13.97;100.00;102568.52;1979793;72;26306;-71
2021/10/23 12:02:18;;;;;;;22.80;21.70;;;;;;;13.98;100.00;102552.89;1941229;74;32998;-69
2021/10/23 12:07:42;;;;;;;21.97;20.97;;;;;;;14.21;100.00;102552.20;1941041;74;32988;-69
2021/10/23 12:13:16;;;;;;;20.43;19.30;;;;;;;14.23;100.00;102548.05;1941295;74;33003;-73
2021/10/23 12:18:59;;;;;;;23.00;21.80;;;;;;;14.05;100.00;102533.94;1941139;74;32991;-71
2021/10/23 12:24:35;;;;;;;22.30;21.30;;;;;;;14.29;100.00;102527.38;1941304;74;33557;-69
2021/10/23 12:30:07;;;;;;;22.87;21.77;;;;;;;14.37;100.00;102529.73;1941302;74;33040;-69
2021/10/23 12:35:33;;;;;;;23.57;22.57;;;;;;;14.41;100.00;102526.68;1941306;74;33490;-71
2021/10/23 12:41:01;;;;;;;23.37;22.47;;;;;;;14.36;100.00;102521.05;1941263;74;33637;-72
2021/10/23 12:46:25;;;;;;;22.60;21.60;;;;;;;14.45;100.00;102506.85;1941121;74;33052;-71
2021/10/23 12:51:50;;;;;;;25.20;24.07;;;;;;;14.44;100.00;102508.52;1941051;74;33075;-70
2021/10/23 12:57:16;;;;;;;25.07;24.07;;;;;;;14.48;100.00;102505.45;1941323;74;33079;-68
2021/10/23 13:02:40;;;;;;;23.43;22.33;;;;;;;14.62;100.00;102503.86;1941266;74;33506;-69
2021/10/23 13:08:09;;;;;;;23.07;21.97;;;;;;;14.55;100.00;102492.91;1941321;74;33490;-74
2021/10/23 13:13:35;;;;;;;25.00;23.80;;;;;;;14.69;100.00;102480.67;1941140;74;33049;-74
2021/10/23 13:19:02;;;;;;;22.77;21.60;;;;;;;14.58;100.00;102473.36;1941281;74;33596;-70
2021/10/23 13:24:27;;;;;;;21.87;20.97;;;;;;;14.67;100.00;102476.47;1941104;74;32981;-68
2021/10/23 13:29:52;;;;;;;24.27;22.87;;;;;;;14.76;100.00;102474.25;1941227;74;33112;-69
2021/10/23 13:35:17;;;;;;;23.80;22.67;;;;;;;14.78;100.00;102475.39;1941100;74;32991;-68
2021/10/23 13:40:42;;;;;;;23.70;22.60;;;;;;;14.53;100.00;102474.73;1941120;74;32977;-68
2021/10/23 13:46:06;;;;;;;24.53;23.57;;;;;;;14.70;100.00;102466.97;1941344;74;33615;-71
2021/10/23 13:51:31;;;;;;;26.43;25.33;;;;;;;14.57;100.00;102471.12;1941090;74;33051;-71
2021/10/23 13:56:56;;;;;;;23.43;22.33;;;;;;;14.64;100.00;102464.41;1941049;74;33081;-70
2021/10/23 14:02:21;;;;;;;24.40;23.20;;;;;;;14.65;100.00;102457.71;1941072;74;32994;-71
2021/10/23 14:07:45;;;;;;;26.30;25.13;;;;;;;14.46;100.00;102462.96;1941224;74;33014;-69
2021/10/23 14:13:11;;;;;;;26.10;24.80;;;;;;;14.59;100.00;102457.69;1941179;74;32994;-71
2021/10/23 14:18:36;;;;;;;22.47;21.53;;;;;;;14.49;100.00;102452.06;1941052;74;33075;-72
2021/10/23 14:24:00;;;;;;;24.83;23.53;;;;;;;14.48;100.00;102450.92;1941162;74;33189;-71
2021/10/23 14:29:25;;;;;;;25.50;24.30;;;;;;;14.33;100.00;102442.45;1941050;74;33096;-71
2021/10/23 14:34:49;;;;;;;29.30;27.90;;;;;;;14.31;100.00;102446.06;1941252;74;33564;-69
2021/10/23 14:40:15;;;;;;;29.87;28.47;;;;;;;14.31;100.00;102437.12;1941022;74;32983;-70
2021/10/23 14:45:41;;;;;;;30.20;28.70;;;;;;;14.28;100.00;102436.83;1941023;74;33043;-72
2021/10/23 14:51:08;;;;;;;27.17;25.83;;;;;;;14.29;100.00;102435.72;1941069;74;33092;-69
2021/10/23 14:56:33;;;;;;;28.63;27.23;;;;;;;14.35;100.00;102436.02;1941066;74;33093;-71
2021/10/23 15:01:58;;;;;;;29.50;27.87;;;;;;;14.29;100.00;102424.54;1941232;74;32968;-75
2021/10/23 15:07:23;;;;;;;32.63;30.77;;;;;;;14.31;100.00;102427.88;1941059;74;33482;-72
2021/10/23 15:12:47;;;;;;;30.30;28.67;;;;;;;14.25;100.00;102433.19;1941141;74;32986;-74
2021/10/23 15:18:11;;;;;;;31.33;29.77;;;;;;;14.25;100.00;102431.20;1941181;74;33479;-72
2021/10/23 15:23:39;;;;;;;32.93;31.33;;;;;;;14.20;100.00;102420.02;1943234;74;33029;-73
2021/10/23 15:29:04;;;;;;;36.97;35.07;;;;;;;14.23;100.00;102411.63;1941065;74;33050;-72
2021/10/23 15:34:28;;;;;;;36.70;34.73;;;;;;;14.22;100.00;102410.80;1941308;74;33465;-69
2021/10/23 15:39:53;;;;;;;38.10;36.20;;;;;;;14.24;100.00;102408.58;1941339;74;33441;-71
2021/10/23 15:45:17;;;;;;;35.90;33.93;;;;;;;14.21;100.00;102397.08;1941108;74;33112;-72
2021/10/23 15:50:42;;;;;;;38.77;36.77;;;;;;;14.05;100.00;102403.16;1941071;74;33080;-67
2021/10/23 15:56:07;;;;;;;38.73;36.83;;;;;;;14.10;100.00;102393.41;1941093;74;32946;-71
2021/10/23 16:01:31;;;;;;;40.00;37.93;;;;;;;14.05;100.00;102383.04;1941242;74;33125;-66
2021/10/23 16:06:56;;;;;;;37.93;35.93;;;;;;;14.07;100.00;102386.97;1941228;74;33462;-69
2021/10/23 16:12:20;;;;;;;37.90;35.73;;;;;;;14.06;100.00;102378.30;1941023;74;32957;-69
2021/10/23 16:17:44;;;;;;;38.70;36.70;;;;;;;13.96;100.00;102386.06;1941164;74;33144;-67
2021/10/23 16:23:10;;;;;;;38.17;35.73;;;;;;;14.01;100.00;102386.09;1940942;74;33057;-67
2021/10/23 16:28:37;;;;;;;38.13;36.03;;;;;;;13.95;100.00;102389.95;1941256;74;33107;-67
2021/10/23 16:34:02;;;;;;;37.80;35.53;;;;;;;13.97;100.00;102385.51;1941076;74;33052;-69
2021/10/23 16:39:26;;;;;;;44.47;42.27;;;;;;;13.83;100.00;102390.72;1941327;74;33495;-67
2021/10/23 16:44:53;;;;;;;45.50;43.10;;;;;;;13.81;100.00;102394.36;1941288;74;33496;-68
2021/10/23 16:50:17;;;;;;;45.63;43.33;;;;;;;13.82;100.00;102392.41;1941290;74;33107;-69
2021/10/23 16:55:41;;;;;;;47.60;45.13;;;;;;;13.81;100.00;102392.96;1941267;74;33591;-69
2021/10/23 17:01:11;;;;;;;46.53;44.03;;;;;;;13.76;100.00;102382.30;1941213;74;33594;-67
2021/10/23 17:06:35;;;;;;;47.23;44.80;;;;;;;13.72;100.00;102383.95;1941307;74;33008;-71
2021/10/23 17:12:00;;;;;;;47.40;45.10;;;;;;;13.73;100.00;102381.45;1941053;74;33085;-68
2021/10/23 17:17:25;;;;;;;46.37;43.97;;;;;;;13.76;100.00;102390.68;1941045;74;33112;-69
2021/10/23 17:22:49;;;;;;;46.27;43.87;;;;;;;13.72;100.00;102395.13;1941147;74;33107;-69
2021/10/23 17:28:14;;;;;;;43.23;41.03;;;;;;;13.63;100.00;102399.81;1941222;74;33078;-67
2021/10/23 17:33:38;;;;;;;45.67;43.30;;;;;;;13.69;100.00;102386.73;1941120;74;33094;-67
2021/10/23 17:39:03;;;;;;;47.23;44.87;;;;;;;13.55;100.00;102394.73;1941140;74;32977;-70
2021/10/23 17:44:28;;;;;;;45.87;43.37;;;;;;;13.61;100.00;102400.63;1941002;74;33117;-69
2021/10/23 17:49:52;;;;;;;46.00;43.60;;;;;;;13.68;100.00;102398.47;1941081;74;33003;-67
2021/10/23 17:55:16;;;;;;;44.37;41.97;;;;;;;13.48;100.00;102406.66;1941288;74;33481;-72
2021/10/23 18:00:40;;;;;;;49.08;46.28;;;;;;;13.55;100.00;102409.24;1925324;74;28240;-71
2021/10/23 18:06:06;;;;;;;43.33;40.90;;;;;;;13.59;100.00;102409.84;1941055;74;32992;-67
2021/10/23 18:11:32;;;;;;;44.80;42.30;;;;;;;13.57;100.00;102414.84;1941135;74;33154;-70
2021/10/23 18:17:11;;;;;;;44.70;42.13;;;;;;;13.52;100.00;102406.99;1941213;74;33057;-72
2021/10/23 18:22:28;;;;;;;45.07;42.30;;;;;;;13.66;100.00;102403.45;1941242;74;33514;-68
2021/10/23 18:27:51;;;;;;;47.20;44.60;;;;;;;13.61;100.00;102405.36;1941282;74;33485;-69
2021/10/23 18:33:16;;;;;;;47.43;44.73;;;;;;;13.45;100.00;102411.39;1941255;74;33545;-67
2021/10/23 18:38:41;;;;;;;47.23;44.50;;;;;;;13.34;100.00;102409.63;1941109;74;33138;-70
2021/10/23 18:44:07;;;;;;;44.33;41.63;;;;;;;13.42;100.00;102413.88;1941251;74;33116;-69
2021/10/23 18:49:32;;;;;;;43.13;40.33;;;;;;;13.45;100.00;102418.38;1941241;74;33003;-66
2021/10/23 18:54:56;;;;;;;48.97;45.97;;;;;;;13.38;100.00;102421.10;1941247;74;33158;-64
2021/10/23 19:00:22;;;;;;;47.03;44.43;;;;;;;13.36;100.00;102414.38;1941162;74;33078;-66
2021/10/23 19:05:47;;;;;;;48.70;45.90;;;;;;;13.38;100.00;102418.31;1941121;74;32988;-71
2021/10/23 19:11:11;;;;;;;47.17;44.57;;;;;;;13.42;100.00;102420.86;1941024;74;33005;-69
2021/10/23 19:16:36;;;;;;;49.00;46.30;;;;;;;13.31;100.00;102412.09;1941091;74;33039;-68
2021/10/23 19:22:00;;;;;;;50.00;47.20;;;;;;;13.19;100.00;102412.27;1941001;74;33071;-66
2021/10/23 19:27:25;;;;;;;48.67;45.97;;;;;;;13.27;100.00;102407.59;1941204;74;33598;-70
2021/10/23 19:32:51;;;;;;;45.70;43.30;;;;;;;13.34;100.00;102403.20;1941035;74;33070;-71
2021/10/23 19:38:16;;;;;;;43.90;41.60;;;;;;;13.20;100.00;102403.64;1941183;74;33065;-68
2021/10/23 19:43:44;;;;;;;44.70;42.30;;;;;;;13.28;100.00;102400.91;1941252;74;33513;-67
2021/10/23 19:49:09;;;;;;;47.03;44.33;;;;;;;13.31;100.00;102390.61;1941264;74;33556;-67
2021/10/23 19:54:52;;;;;;;47.43;44.83;;;;;;;13.26;100.00;102389.74;2015259;70;32845;-70
2021/10/23 20:00:18;;;;;;;44.97;42.47;;;;;;;13.18;100.00;102386.31;1941267;74;33244;-70
2021/10/23 20:05:43;;;;;;;46.27;43.67;;;;;;;13.21;100.00;102379.37;1941029;74;33003;-71
2021/10/23 20:11:09;;;;;;;43.93;41.50;;;;;;;13.10;100.00;102387.31;1941336;74;33177;-68
2021/10/23 20:16:34;;;;;;;38.63;36.23;;;;;;;13.05;100.00;102381.13;1941014;74;33058;-70
2021/10/23 20:21:59;;;;;;;37.33;35.30;;;;;;;13.09;100.00;102373.10;1940953;74;33122;-71
2021/10/23 20:27:42;;;;;;;37.50;35.50;;;;;;;13.15;100.00;102367.31;2010021;71;33383;-70
2021/10/23 20:33:07;;;;;;;37.20;35.03;;;;;;;13.23;100.00;102360.40;1941213;74;33032;-70
2021/10/23 20:38:31;;;;;;;37.23;35.33;;;;;;;13.38;100.00;102353.56;1940999;74;32980;-72
2021/10/23 20:43:57;;;;;;;39.10;36.83;;;;;;;13.20;100.00;102346.44;1941017;74;32965;-71
2021/10/23 20:49:22;;;;;;;36.00;34.10;;;;;;;13.06;100.00;102345.16;1941266;74;33473;-67
2021/10/23 20:54:47;;;;;;;36.63;34.43;;;;;;;13.04;100.00;102338.17;1941284;74;33515;-70
2021/10/23 21:00:13;;;;;;;46.20;43.67;;;;;;;12.95;100.00;102345.34;1941000;74;33074;-70
2021/10/23 21:05:37;;;;;;;46.33;43.63;;;;;;;12.79;100.00;102332.63;1941234;74;33142;-67
2021/10/23 21:11:03;;;;;;;48.23;45.33;;;;;;;12.91;100.00;102335.27;1941001;74;33569;-70
2021/10/23 21:16:27;;;;;;;37.83;35.70;;;;;;;12.92;100.00;102334.14;1941224;74;33114;-67
2021/10/23 21:21:52;;;;;;;47.40;44.70;;;;;;;12.83;100.00;102332.13;1941092;74;33131;-70
2021/10/23 21:27:16;;;;;;;45.53;42.93;;;;;;;12.71;100.00;102324.75;1941038;74;33025;-67
2021/10/23 21:32:41;;;;;;;46.70;44.00;;;;;;;12.64;100.00;102324.13;1941013;74;33069;-70
2021/10/23 21:38:06;;;;;;;47.53;44.83;;;;;;;12.73;100.00;102322.55;1941024;74;33064;-70
2021/10/23 21:43:31;;;;;;;46.43;43.73;;;;;;;12.68;100.00;102308.55;1941277;74;33553;-65
2021/10/23 21:48:56;;;;;;;44.17;41.67;;;;;;;12.50;100.00;102303.34;1941022;74;33086;-67
2021/10/23 21:54:20;;;;;;;43.53;40.93;;;;;;;12.35;100.00;102306.52;1941015;74;33013;-67
2021/10/23 21:59:45;;;;;;;45.97;43.17;;;;;;;12.40;100.00;102299.08;1941052;74;33089;-70
2021/10/23 22:05:09;;;;;;;44.20;41.80;;;;;;;12.42;100.00;102295.45;1941260;74;33576;-70
2021/10/23 22:10:34;;;;;;;44.93;42.43;;;;;;;12.61;100.00;102297.33;1941030;74;32994;-70
2021/10/23 22:15:59;;;;;;;48.33;45.50;;;;;;;12.46;100.00;102294.37;1941168;74;33177;-68
2021/10/23 22:21:25;;;;;;;47.40;44.77;;;;;;;12.32;100.00;102296.76;1941218;74;33477;-70
2021/10/23 22:26:50;;;;;;;47.57;44.77;;;;;;;12.21;100.00;102293.55;1941005;74;33009;-67
2021/10/23 22:32:14;;;;;;;46.23;43.53;;;;;;;12.20;100.00;102290.47;1941032;74;33024;-68
2021/10/23 22:37:39;;;;;;;46.70;44.00;;;;;;;12.31;100.00;102287.55;1941028;74;32994;-70
2021/10/23 22:43:26;;;;;;;40.47;38.17;;;;;;;12.36;100.00;102281.74;2009984;71;33323;-68
2021/10/23 22:48:50;;;;;;;45.07;42.57;;;;;;;12.31;100.00;102271.38;1941240;74;33650;-67
2021/10/23 22:54:15;;;;;;;42.13;39.80;;;;;;;12.54;100.00;102271.05;1941003;74;33209;-69
2021/10/23 22:59:39;;;;;;;42.93;40.53;;;;;;;12.55;100.00;102281.09;1940988;74;33041;-68
2021/10/23 23:05:07;;;;;;;44.63;42.20;;;;;;;12.40;100.00;102266.18;1948964;73;33059;-67